Time;durP1;ratioP1;P1;durP2;ratioP2;P2;SDS_P1;SDS_P2;PMS_P1;PMS_P2;Temp;Humidity;BMP_temperature;BMP_pressure;BME280_temperature;BME280_humidity;BME280_pressure;Samples;Min_cycle;Max_cycle;Signal;HPM_P1;HPM_P2
2022/07/06 00:01:39;;;;;;;1.27;1.00;;;13.80;99.90;;;;;;5033307;28;20196;-51
2022/07/06 00:04:05;;;;;;;1.08;0.98;;;13.90;99.90;;;;;;5015697;28;20206;-49
2022/07/06 00:06:31;;;;;;;1.88;1.23;;;13.90;99.90;;;;;;5033127;28;20651;-47
2022/07/06 00:08:58;;;;;;;1.00;0.95;;;14.00;99.90;;;;;;5032977;28;20196;-47
2022/07/06 00:11:24;;;;;;;1.25;0.98;;;14.00;99.90;;;;;;5033029;28;20226;-47
2022/07/06 00:13:51;;;;;;;1.38;1.17;;;13.90;99.90;;;;;;5032930;28;20186;-47
2022/07/06 00:16:17;;;;;;;0.90;0.90;;;13.80;99.90;;;;;;5033129;28;20176;-49
2022/07/06 00:18:43;;;;;;;1.25;1.08;;;13.70;99.90;;;;;;5032962;28;20176;-47
2022/07/06 00:21:09;;;;;;;1.30;1.05;;;13.70;99.90;;;;;;5015509;28;20271;-47
2022/07/06 00:23:34;;;;;;;1.20;1.10;;;13.50;99.90;;;;;;5032788;28;20565;-47
2022/07/06 00:26:00;;;;;;;0.77;0.77;;;13.40;99.90;;;;;;5015335;28;20183;-47
2022/07/06 00:28:26;;;;;;;1.52;1.15;;;13.40;99.90;;;;;;5033098;28;20175;-47
2022/07/06 00:30:52;;;;;;;1.23;0.90;;;13.30;99.90;;;;;;5015415;28;20514;-48
2022/07/06 00:33:18;;;;;;;1.85;1.15;;;13.30;99.90;;;;;;5032812;28;20637;-47
2022/07/06 00:35:44;;;;;;;1.08;0.95;;;13.30;99.90;;;;;;5032895;28;20180;-47
2022/07/06 00:38:09;;;;;;;1.70;1.30;;;13.20;99.90;;;;;;5032764;28;20176;-47
2022/07/06 00:40:35;;;;;;;1.20;1.00;;;13.20;99.90;;;;;;5033066;28;20176;-48
2022/07/06 00:43:01;;;;;;;0.85;0.82;;;13.30;99.90;;;;;;5032887;28;20216;-51
2022/07/06 00:45:27;;;;;;;2.90;1.20;;;13.20;99.90;;;;;;5032905;28;20168;-47
2022/07/06 00:47:52;;;;;;;0.80;0.80;;;13.30;99.90;;;;;;4999084;28;20634;-47
2022/07/06 00:50:22;;;;;;;1.15;1.05;;;13.20;99.90;;;;;;5032725;28;20179;-48
2022/07/06 00:52:47;;;;;;;1.33;1.00;;;13.10;99.90;;;;;;5032676;28;20191;-47
2022/07/06 00:55:14;;;;;;;1.17;1.05;;;13.20;99.90;;;;;;5032863;28;20589;-47
2022/07/06 00:57:41;;;;;;;1.63;1.10;;;13.20;99.90;;;;;;5036075;28;20208;-47
2022/07/06 01:00:09;;;;;;;0.82;0.82;;;13.20;99.90;;;;;;5036163;28;20198;-47
2022/07/06 01:02:36;;;;;;;1.23;1.05;;;13.20;99.90;;;;;;5036079;28;20274;-49
2022/07/06 01:05:04;;;;;;;1.60;1.50;;;13.20;99.90;;;;;;5036141;28;20195;-47
2022/07/06 01:07:30;;;;;;;1.20;1.10;;;13.20;99.90;;;;;;5018284;28;20225;-47
2022/07/06 01:09:56;;;;;;;1.60;1.50;;;13.20;99.90;;;;;;5036282;28;20207;-47
2022/07/06 01:12:23;;;;;;;1.42;1.00;;;13.10;99.90;;;;;;5036015;28;20183;-50
2022/07/06 01:14:49;;;;;;;1.17;0.93;;;13.10;99.90;;;;;;5018458;28;20180;-48
2022/07/06 01:17:17;;;;;;;1.10;1.00;;;13.00;99.90;;;;;;5035918;28;20223;-51
2022/07/06 01:19:42;;;;;;;1.10;1.00;;;13.00;99.90;;;;;;5018263;28;20168;-50
2022/07/06 01:22:09;;;;;;;1.10;1.02;;;13.00;99.90;;;;;;5035689;28;20560;-47
2022/07/06 01:24:38;;;;;;;1.70;1.40;;;13.00;99.90;;;;;;5036048;28;20254;-49
2022/07/06 01:27:05;;;;;;;1.15;1.02;;;13.10;99.90;;;;;;5035858;28;20168;-49
2022/07/06 01:29:32;;;;;;;1.30;1.00;;;13.20;99.90;;;;;;5035856;28;20188;-46
2022/07/06 01:31:58;;;;;;;1.02;0.90;;;13.20;99.90;;;;;;5035618;28;20180;-46
2022/07/06 01:34:24;;;;;;;1.15;1.00;;;13.20;99.90;;;;;;5035612;28;20173;-51
2022/07/06 01:36:49;;;;;;;1.50;1.40;;;13.10;99.90;;;;;;5036051;28;20234;-48
2022/07/06 01:39:15;;;;;;;1.13;0.98;;;13.20;99.90;;;;;;5035664;28;20238;-51
2022/07/06 01:41:41;;;;;;;1.15;1.05;;;13.10;99.90;;;;;;5035577;28;20561;-47
2022/07/06 01:44:07;;;;;;;1.65;1.30;;;13.00;99.90;;;;;;5035535;28;20267;-49
2022/07/06 01:46:33;;;;;;;1.45;1.08;;;12.90;99.90;;;;;;5035260;28;20190;-48
2022/07/06 01:48:59;;;;;;;1.13;0.95;;;12.90;99.90;;;;;;5035259;28;20176;-48
2022/07/06 01:51:25;;;;;;;1.20;1.10;;;12.80;99.90;;;;;;5035172;28;20222;-51
2022/07/06 01:53:51;;;;;;;1.13;1.02;;;12.80;99.90;;;;;;5035293;28;20180;-48
2022/07/06 01:56:19;;;;;;;1.45;1.35;;;12.80;99.90;;;;;;5035568;28;20179;-49
2022/07/06 01:58:45;;;;;;;0.88;0.85;;;12.80;99.90;;;;;;5035193;28;20172;-48
2022/07/06 02:01:13;;;;;;;1.85;1.20;;;12.70;99.90;;;;;;5035102;28;20537;-50
2022/07/06 02:03:39;;;;;;;0.95;0.80;;;12.70;99.90;;;;;;5034989;28;20207;-47
2022/07/06 02:06:05;;;;;;;1.45;1.30;;;12.70;99.90;;;;;;5035189;28;20262;-47
2022/07/06 02:08:32;;;;;;;1.08;0.98;;;12.80;99.90;;;;;;5016505;28;20172;-51
2022/07/06 02:10:58;;;;;;;1.30;1.02;;;12.80;99.90;;;;;;5035020;28;20179;-47
2022/07/06 02:13:24;;;;;;;0.90;0.85;;;12.90;99.90;;;;;;5017499;28;20184;-50
2022/07/06 02:15:50;;;;;;;1.45;1.33;;;12.80;99.90;;;;;;5034888;28;20202;-49
2022/07/06 02:18:16;;;;;;;1.63;1.08;;;12.80;99.90;;;;;;5034708;28;20180;-51
2022/07/06 02:20:42;;;;;;;1.48;1.38;;;12.70;99.90;;;;;;5034700;28;20177;-48
2022/07/06 02:23:07;;;;;;;1.58;1.23;;;12.70;99.90;;;;;;5034587;28;20218;-51
2022/07/06 02:25:34;;;;;;;1.58;1.10;;;12.70;99.90;;;;;;5017001;28;20254;-47
2022/07/06 02:27:59;;;;;;;1.20;1.10;;;12.70;99.90;;;;;;5034799;28;20206;-50
2022/07/06 02:30:25;;;;;;;2.53;1.40;;;12.70;99.90;;;;;;5034496;28;20661;-50
2022/07/06 02:32:51;;;;;;;1.42;1.27;;;12.60;99.90;;;;;;5016901;28;20240;-51
2022/07/06 02:35:16;;;;;;;1.15;1.05;;;12.60;99.90;;;;;;5034689;28;20199;-51
2022/07/06 02:37:42;;;;;;;1.52;1.42;;;12.50;99.90;;;;;;5016966;28;20183;-50
2022/07/06 02:40:09;;;;;;;1.38;1.27;;;12.50;99.90;;;;;;5034478;28;20164;-52
2022/07/06 02:42:34;;;;;;;1.58;1.33;;;12.60;99.90;;;;;;5034119;28;20238;-51
2022/07/06 02:45:00;;;;;;;2.35;1.40;;;12.60;99.90;;;;;;5034292;28;20199;-49
2022/07/06 02:47:26;;;;;;;1.63;1.40;;;12.70;99.90;;;;;;5016424;28;20545;-48
2022/07/06 02:49:52;;;;;;;2.88;1.88;;;12.60;99.90;;;;;;5034358;28;20180;-49
2022/07/06 02:52:18;;;;;;;1.60;1.48;;;12.60;99.90;;;;;;5034329;28;20255;-51
2022/07/06 02:54:44;;;;;;;1.45;1.30;;;12.50;99.90;;;;;;5016709;28;20263;-52
2022/07/06 02:57:09;;;;;;;1.75;1.52;;;12.40;99.90;;;;;;5016405;28;20326;-46
2022/07/06 02:59:36;;;;;;;2.83;1.75;;;12.40;99.90;;;;;;5034144;28;20200;-46
2022/07/06 03:02:06;;;;;;;2.00;1.58;;;12.50;99.90;;;;;;5016291;28;20223;-47
2022/07/06 03:04:32;;;;;;;2.00;1.50;;;12.60;99.90;;;;;;5034116;28;20184;-47
2022/07/06 03:06:58;;;;;;;1.38;1.27;;;12.70;99.90;;;;;;5034017;28;20175;-46
2022/07/06 03:09:24;;;;;;;1.80;1.30;;;12.70;99.90;;;;;;5033818;28;20179;-46
2022/07/06 03:11:50;;;;;;;2.40;1.90;;;12.70;99.90;;;;;;5033824;28;20697;-47
2022/07/06 03:14:16;;;;;;;1.90;1.23;;;12.70;99.90;;;;;;5033749;28;20204;-48
2022/07/06 03:16:41;;;;;;;1.60;1.30;;;12.60;99.90;;;;;;5033621;28;20246;-46
2022/07/06 03:19:07;;;;;;;1.50;1.30;;;12.60;99.90;;;;;;5015606;28;20652;-47
2022/07/06 03:21:33;;;;;;;2.33;2.03;;;12.60;99.90;;;;;;5016445;28;20176;-47
2022/07/06 03:23:58;;;;;;;2.42;1.70;;;12.40;99.90;;;;;;5033598;28;20248;-46
2022/07/06 03:26:24;;;;;;;2.00;1.40;;;12.30;99.90;;;;;;5033643;28;20283;-47
2022/07/06 03:28:50;;;;;;;2.22;1.50;;;12.30;99.90;;;;;;5033474;28;20625;-47
2022/07/06 03:31:16;;;;;;;1.83;1.42;;;12.40;99.90;;;;;;5033378;28;20237;-47
2022/07/06 03:33:41;;;;;;;2.47;1.65;;;12.50;99.90;;;;;;5016034;28;20180;-47
2022/07/06 03:36:07;;;;;;;2.17;1.70;;;12.50;99.90;;;;;;5015739;28;20207;-47
2022/07/06 03:38:34;;;;;;;2.08;1.50;;;12.60;99.90;;;;;;5033467;28;20179;-47
2022/07/06 03:40:59;;;;;;;1.98;1.60;;;12.40;99.90;;;;;;5015963;28;20267;-47
2022/07/06 03:43:25;;;;;;;1.42;1.33;;;12.40;99.90;;;;;;5033269;28;20341;-48
2022/07/06 03:45:51;;;;;;;2.13;1.70;;;12.50;99.90;;;;;;5033167;28;20206;-49
2022/07/06 03:48:16;;;;;;;2.83;1.88;;;12.50;99.90;;;;;;5033435;28;20176;-47
2022/07/06 03:50:42;;;;;;;2.05;1.52;;;12.50;99.90;;;;;;5033261;28;20179;-47
2022/07/06 03:53:08;;;;;;;5.45;2.88;;;12.40;99.90;;;;;;5033360;28;20203;-47
2022/07/06 03:55:33;;;;;;;1.58;1.40;;;12.30;99.90;;;;;;5033259;28;20176;-47
2022/07/06 03:57:59;;;;;;;1.65;1.52;;;12.30;99.90;;;;;;5033176;28;20287;-47
2022/07/06 04:00:25;;;;;;;2.28;1.77;;;12.20;99.90;;;;;;5033109;28;20549;-47
2022/07/06 04:02:50;;;;;;;3.67;2.13;;;12.10;99.90;;;;;;5033512;28;20696;-48
2022/07/06 04:05:20;;;;;;;2.20;1.67;;;12.20;99.90;;;;;;5015791;28;20184;-48
2022/07/06 04:07:49;;;;;;;2.10;1.73;;;12.30;99.90;;;;;;5033019;28;20210;-47
2022/07/06 04:10:16;;;;;;;3.15;1.80;;;12.30;99.90;;;;;;5032862;28;20172;-50
2022/07/06 04:12:43;;;;;;;2.47;1.73;;;12.40;99.90;;;;;;5033026;28;20187;-47
2022/07/06 04:15:10;;;;;;;2.60;2.10;;;12.50;99.90;;;;;;5033151;28;20184;-47
2022/07/06 04:17:55;;;;;;;3.22;2.50;;;12.50;99.90;;;;;;5033011;28;20540;-51
2022/07/06 04:20:22;;;;;;;2.30;2.10;;;12.50;99.90;;;;;;5033104;28;20279;-48
2022/07/06 04:22:48;;;;;;;3.15;2.13;;;12.50;99.90;;;;;;5032861;28;20203;-51
2022/07/06 04:25:14;;;;;;;3.78;2.25;;;12.50;99.90;;;;;;5032866;28;20175;-48
2022/07/06 04:27:40;;;;;;;2.88;1.98;;;12.50;99.90;;;;;;5033051;28;20165;-48
2022/07/06 04:30:07;;;;;;;3.47;2.40;;;12.40;99.90;;;;;;5032530;28;20199;-50
2022/07/06 04:32:32;;;;;;;3.10;2.60;;;12.50;99.90;;;;;;5036196;28;20183;-48
2022/07/06 04:34:58;;;;;;;3.72;2.55;;;12.50;99.90;;;;;;5002860;28;20184;-49
2022/07/06 04:37:24;;;;;;;3.05;2.03;;;12.70;99.90;;;;;;5036687;28;20258;-48
2022/07/06 04:39:49;;;;;;;2.20;1.80;;;12.80;99.90;;;;;;5036534;28;20238;-52
2022/07/06 04:42:15;;;;;;;2.13;1.67;;;12.90;99.90;;;;;;5036640;28;20214;-51
2022/07/06 04:44:41;;;;;;;2.97;1.95;;;13.00;99.90;;;;;;5036456;28;20262;-48
2022/07/06 04:47:07;;;;;;;2.03;1.75;;;13.20;99.90;;;;;;5036561;28;20176;-47
2022/07/06 04:49:32;;;;;;;2.70;1.77;;;13.20;99.90;;;;;;5018683;28;20180;-48
2022/07/06 04:51:58;;;;;;;3.40;1.80;;;13.30;99.90;;;;;;5036410;28;20178;-47
2022/07/06 04:54:24;;;;;;;3.85;2.30;;;13.30;99.90;;;;;;5036222;28;20168;-49
2022/07/06 04:56:49;;;;;;;3.75;2.17;;;13.40;99.90;;;;;;5036441;28;20183;-48
2022/07/06 04:59:15;;;;;;;3.03;2.05;;;13.40;99.90;;;;;;5036106;28;20180;-51
2022/07/06 05:01:41;;;;;;;3.85;2.17;;;13.40;99.90;;;;;;5036321;28;20176;-55
2022/07/06 05:04:07;;;;;;;3.58;1.98;;;13.40;99.90;;;;;;5018899;28;20176;-50
2022/07/06 05:06:33;;;;;;;2.45;2.05;;;13.40;99.90;;;;;;5035491;28;20172;-49
2022/07/06 05:09:02;;;;;;;3.30;2.17;;;13.40;99.90;;;;;;5017619;28;20187;-52
2022/07/06 05:11:28;;;;;;;3.17;2.13;;;13.40;99.90;;;;;;5029856;28;20183;-50
2022/07/06 05:13:54;;;;;;;3.00;1.98;;;13.50;99.90;;;;;;5014480;28;20176;-53
2022/07/06 05:16:20;;;;;;;3.50;2.50;;;13.50;99.90;;;;;;5013540;28;20184;-52
2022/07/06 05:18:46;;;;;;;2.92;2.28;;;13.70;99.90;;;;;;5014334;28;20181;-49
2022/07/06 05:21:12;;;;;;;2.60;1.98;;;13.70;99.90;;;;;;5015456;28;20172;-53
2022/07/06 05:23:37;;;;;;;3.00;2.08;;;13.80;99.90;;;;;;5014710;28;20327;-50
2022/07/06 05:26:03;;;;;;;3.50;1.77;;;13.80;99.90;;;;;;5015619;28;20609;-53
2022/07/06 05:28:29;;;;;;;2.10;1.55;;;14.00;99.90;;;;;;5015934;28;20267;-53
2022/07/06 05:30:54;;;;;;;4.07;2.00;;;14.10;99.90;;;;;;5016059;28;20538;-50
2022/07/06 05:33:20;;;;;;;3.83;2.10;;;14.20;99.90;;;;;;5015944;28;20626;-52
2022/07/06 05:35:46;;;;;;;2.30;1.70;;;14.40;99.90;;;;;;5015856;28;20212;-53
2022/07/06 05:38:12;;;;;;;3.13;2.40;;;14.60;99.90;;;;;;5015244;28;20180;-52
2022/07/06 05:40:37;;;;;;;2.72;2.20;;;14.70;99.90;;;;;;5016264;28;20572;-52
2022/07/06 05:43:03;;;;;;;2.95;2.13;;;14.80;99.90;;;;;;4998066;28;20212;-52
2022/07/06 05:45:29;;;;;;;3.10;2.15;;;15.00;99.90;;;;;;5015672;28;20204;-53
2022/07/06 05:50:40;;;;;;;2.35;2.05;;;15.30;99.90;;;;;;5015837;28;20649;-52
2022/07/06 05:53:06;;;;;;;2.95;2.20;;;15.50;99.90;;;;;;5015745;28;20238;-52
2022/07/06 05:55:32;;;;;;;1.98;1.70;;;15.70;99.90;;;;;;5015482;28;20638;-54
2022/07/06 05:57:58;;;;;;;3.15;2.30;;;15.70;99.90;;;;;;5015817;28;20214;-52
2022/07/06 06:00:26;;;;;;;2.70;2.00;;;15.90;99.90;;;;;;5015638;28;20287;-53
2022/07/06 06:02:52;;;;;;;3.95;1.75;;;16.00;99.90;;;;;;5015419;28;20205;-54
2022/07/06 06:05:19;;;;;;;2.85;1.88;;;16.20;99.90;;;;;;5015207;28;20326;-53
2022/07/06 06:07:50;;;;;;;2.95;1.98;;;16.30;99.90;;;;;;5015436;28;20172;-50
2022/07/06 06:10:17;;;;;;;2.70;1.85;;;16.50;99.90;;;;;;5015371;28;20546;-52
2022/07/06 06:12:44;;;;;;;2.83;2.00;;;16.60;99.90;;;;;;5015245;28;20211;-51
2022/07/06 06:15:11;;;;;;;3.08;1.60;;;16.70;99.90;;;;;;5015204;28;20177;-49
2022/07/06 06:17:37;;;;;;;2.38;1.80;;;16.80;99.90;;;;;;5015116;28;20614;-50
2022/07/06 06:20:06;;;;;;;2.17;1.35;;;16.70;99.90;;;;;;5015242;28;20169;-50
2022/07/06 06:22:32;;;;;;;2.33;1.80;;;16.70;99.90;;;;;;5015189;28;20530;-52
2022/07/06 06:24:57;;;;;;;1.98;1.55;;;16.70;99.90;;;;;;5014933;28;20177;-49
2022/07/06 06:27:23;;;;;;;3.30;1.55;;;16.70;99.90;;;;;;5014994;28;20177;-49
2022/07/06 06:29:49;;;;;;;2.78;1.60;;;16.70;99.90;;;;;;5015285;28;20235;-49
2022/07/06 06:32:14;;;;;;;2.65;2.00;;;16.70;99.90;;;;;;5014781;28;20192;-49
2022/07/06 06:34:40;;;;;;;2.20;1.80;;;16.70;99.90;;;;;;5014696;28;20539;-49
2022/07/06 06:37:06;;;;;;;2.25;1.65;;;16.90;99.90;;;;;;5014793;28;20212;-50
2022/07/06 06:39:32;;;;;;;3.10;1.83;;;16.90;99.90;;;;;;5014638;28;20180;-50
2022/07/06 06:41:58;;;;;;;2.53;2.13;;;16.90;99.90;;;;;;5014542;28;20215;-50
2022/07/06 06:44:23;;;;;;;2.55;1.85;;;17.00;99.90;;;;;;5014717;28;20173;-49
2022/07/06 06:46:50;;;;;;;3.20;1.88;;;17.20;99.90;;;;;;5014535;28;20307;-52
2022/07/06 06:49:16;;;;;;;3.35;2.15;;;17.30;99.90;;;;;;5014708;28;20184;-50
2022/07/06 06:51:42;;;;;;;2.85;1.75;;;17.40;99.90;;;;;;4981019;28;20180;-49
2022/07/06 06:54:07;;;;;;;2.75;2.10;;;17.50;99.90;;;;;;5013958;28;20165;-53
2022/07/06 06:56:33;;;;;;;2.40;1.77;;;17.70;99.90;;;;;;5014528;28;20623;-49
2022/07/06 06:58:59;;;;;;;2.45;2.13;;;17.90;99.90;;;;;;5014292;28;20185;-49
2022/07/06 07:01:24;;;;;;;3.13;2.03;;;18.00;99.90;;;;;;4996612;28;20616;-49
2022/07/06 07:03:55;;;;;;;2.75;2.00;;;18.10;99.90;;;;;;5014063;28;20574;-51
2022/07/06 07:06:21;;;;;;;3.30;1.65;;;18.40;99.90;;;;;;5014261;28;20185;-52
2022/07/06 07:08:47;;;;;;;1.92;1.50;;;18.40;99.90;;;;;;4996873;28;20176;-49
2022/07/06 07:11:13;;;;;;;2.28;1.52;;;18.30;99.90;;;;;;5014193;28;20252;-52
2022/07/06 07:13:39;;;;;;;3.22;1.60;;;18.40;99.90;;;;;;4996728;28;20185;-51
2022/07/06 07:16:05;;;;;;;1.75;1.35;;;18.50;99.90;;;;;;5013964;28;20179;-51
2022/07/06 07:18:31;;;;;;;2.22;1.85;;;18.60;99.90;;;;;;5014189;28;20173;-50
2022/07/06 07:20:57;;;;;;;2.13;1.67;;;18.90;99.90;;;;;;5013942;28;20302;-50
2022/07/06 07:23:22;;;;;;;2.45;2.10;;;19.00;99.90;;;;;;5013876;28;20223;-50
2022/07/06 07:25:48;;;;;;;1.95;1.42;;;19.10;99.90;;;;;;5013972;28;20181;-50
2022/07/06 07:28:14;;;;;;;1.80;1.27;;;18.90;99.90;;;;;;5013902;28;20172;-51
2022/07/06 07:30:40;;;;;;;1.50;1.20;;;19.20;99.90;;;;;;4996145;28;20638;-52
2022/07/06 07:33:06;;;;;;;2.03;1.17;;;19.10;99.90;;;;;;4996475;28;20199;-50
2022/07/06 07:35:31;;;;;;;1.38;1.27;;;19.10;99.90;;;;;;5014176;28;20172;-53
2022/07/06 07:37:57;;;;;;;1.38;1.17;;;19.20;99.90;;;;;;5014170;28;20176;-50
2022/07/06 07:40:23;;;;;;;1.65;1.25;;;19.40;99.90;;;;;;5013931;28;20179;-53
2022/07/06 07:42:49;;;;;;;1.67;1.20;;;19.50;99.90;;;;;;4996158;28;20705;-53
2022/07/06 07:45:15;;;;;;;1.98;0.82;;;19.60;99.90;;;;;;5013600;28;20181;-50
2022/07/06 07:47:41;;;;;;;2.13;0.90;;;19.60;99.90;;;;;;5013534;28;20181;-53
2022/07/06 07:50:07;;;;;;;1.35;0.90;;;19.60;99.90;;;;;;5013704;28;20511;-49
2022/07/06 07:52:33;;;;;;;1.45;1.00;;;19.70;99.90;;;;;;5013988;28;20177;-50
2022/07/06 07:54:59;;;;;;;0.77;0.70;;;19.90;99.90;;;;;;4996309;28;20177;-51
2022/07/06 07:57:24;;;;;;;0.50;0.50;;;19.90;99.90;;;;;;5013525;28;20180;-50
2022/07/06 07:59:50;;;;;;;0.35;0.20;;;20.10;99.90;;;;;;4995873;28;20196;-51
2022/07/06 08:02:16;;;;;;;0.20;0.20;;;20.10;99.90;;;;;;5013621;28;20242;-50
2022/07/06 08:04:42;;;;;;;0.50;0.50;;;20.20;99.90;;;;;;5013450;28;20652;-53
2022/07/06 08:07:07;;;;;;;0.52;0.40;;;20.20;99.90;;;;;;5016217;28;20173;-55
2022/07/06 08:09:33;;;;;;;0.50;0.43;;;20.20;99.90;;;;;;5017602;28;20260;-50
2022/07/06 08:11:59;;;;;;;0.50;0.50;;;20.10;99.90;;;;;;5017578;28;20177;-51
2022/07/06 08:14:25;;;;;;;0.75;0.60;;;20.20;99.90;;;;;;5017549;28;20203;-51
2022/07/06 08:16:51;;;;;;;1.75;0.70;;;20.10;99.90;;;;;;5017543;28;20227;-50
2022/07/06 08:19:17;;;;;;;0.50;0.50;;;20.10;99.90;;;;;;5017390;28;20177;-52
2022/07/06 08:21:43;;;;;;;1.25;0.77;;;20.20;99.90;;;;;;5017289;28;20226;-53
2022/07/06 08:24:09;;;;;;;0.60;0.50;;;20.10;99.90;;;;;;5017294;28;20246;-51
2022/07/06 08:26:35;;;;;;;0.40;0.40;;;20.20;99.90;;;;;;4999813;28;20630;-50
2022/07/06 08:29:01;;;;;;;0.88;0.60;;;20.20;99.90;;;;;;5017123;28;20185;-52
2022/07/06 08:31:27;;;;;;;2.50;0.77;;;20.20;99.90;;;;;;4999643;28;20268;-53
2022/07/06 08:33:54;;;;;;;1.27;0.80;;;20.20;99.90;;;;;;5017160;28;20557;-52
2022/07/06 08:36:23;;;;;;;1.10;0.70;;;20.30;99.90;;;;;;5017099;28;20191;-53
2022/07/06 08:39:08;;;;;;;2.17;1.00;;;20.30;99.90;;;;;;5016968;28;20195;-50
2022/07/06 08:41:36;;;;;;;1.20;0.70;;;20.10;99.90;;;;;;5016524;28;20187;-55
2022/07/06 08:44:02;;;;;;;0.73;0.70;;;20.10;99.90;;;;;;5017129;28;20546;-53
2022/07/06 08:46:29;;;;;;;0.82;0.70;;;20.30;99.90;;;;;;4999547;28;20630;-50
2022/07/06 08:48:56;;;;;;;0.47;0.47;;;20.60;99.90;;;;;;5016752;28;20180;-52
2022/07/06 08:51:24;;;;;;;1.85;0.60;;;20.60;99.90;;;;;;5016623;28;20223;-50
2022/07/06 08:53:51;;;;;;;1.20;0.80;;;20.60;99.90;;;;;;5017031;28;20185;-50
2022/07/06 08:56:19;;;;;;;1.55;0.95;;;20.90;99.90;;;;;;5016522;28;20629;-50
2022/07/06 08:58:44;;;;;;;2.15;0.85;;;20.90;99.90;;;;;;5016867;28;20184;-52
2022/07/06 09:01:10;;;;;;;1.38;0.93;;;21.00;99.90;;;;;;5016693;28;20195;-50
2022/07/06 09:03:36;;;;;;;2.13;0.70;;;20.60;99.80;;;;;;5016520;28;20216;-51
2022/07/06 09:06:04;;;;;;;0.85;0.85;;;20.70;99.90;;;;;;5016424;28;20256;-51
2022/07/06 09:08:33;;;;;;;0.70;0.70;;;20.60;99.90;;;;;;5016400;28;20165;-50
2022/07/06 09:10:58;;;;;;;1.45;1.20;;;20.70;99.90;;;;;;5016491;28;20172;-50
2022/07/06 09:13:24;;;;;;;0.93;0.88;;;20.70;99.90;;;;;;4998732;28;20188;-50
2022/07/06 09:15:50;;;;;;;1.00;0.70;;;20.70;99.90;;;;;;5016436;28;20181;-50
2022/07/06 09:18:16;;;;;;;2.10;1.02;;;20.40;99.90;;;;;;4998279;28;20196;-54
2022/07/06 09:20:42;;;;;;;1.35;0.90;;;20.30;99.90;;;;;;5016175;28;20271;-50
2022/07/06 09:23:08;;;;;;;0.70;0.70;;;19.90;99.90;;;;;;5016056;28;20680;-54
2022/07/06 09:25:35;;;;;;;0.88;0.88;;;20.10;99.90;;;;;;5016319;28;20172;-52
2022/07/06 09:28:01;;;;;;;1.40;0.85;;;20.10;99.90;;;;;;5016217;28;20177;-53
2022/07/06 09:30:28;;;;;;;1.70;1.13;;;20.10;99.90;;;;;;5016112;28;20283;-52
2022/07/06 09:32:58;;;;;;;1.38;1.00;;;20.10;99.90;;;;;;5015967;28;20180;-50
2022/07/06 09:35:30;;;;;;;1.92;1.17;;;20.30;99.90;;;;;;5015867;28;20184;-52
2022/07/06 09:38:12;;;;;;;1.63;1.10;;;20.40;99.90;;;;;;5015830;28;20199;-51
2022/07/06 09:40:43;;;;;;;0.90;0.80;;;20.30;99.90;;;;;;5015929;28;20177;-51
2022/07/06 09:43:19;;;;;;;1.63;0.90;;;20.50;99.90;;;;;;5015923;28;20208;-54
2022/07/06 09:45:54;;;;;;;1.33;0.95;;;20.60;99.90;;;;;;5015691;28;20180;-52
2022/07/06 09:48:24;;;;;;;1.80;0.95;;;20.50;99.90;;;;;;5015542;28;20175;-54
2022/07/06 09:50:53;;;;;;;1.02;0.93;;;20.60;99.90;;;;;;5015771;28;20180;-50
2022/07/06 09:53:20;;;;;;;2.17;1.00;;;20.60;99.90;;;;;;5015714;28;20681;-51
2022/07/06 09:55:51;;;;;;;1.20;0.98;;;20.40;99.90;;;;;;5015608;28;20183;-50
2022/07/06 09:58:18;;;;;;;1.83;1.42;;;20.10;99.90;;;;;;5015455;28;20173;-51
2022/07/06 10:00:45;;;;;;;1.20;0.90;;;20.10;99.90;;;;;;5015388;28;20202;-54
2022/07/06 10:03:12;;;;;;;0.75;0.70;;;20.20;99.90;;;;;;5015444;28;20212;-53
2022/07/06 10:05:40;;;;;;;1.00;0.80;;;20.30;99.90;;;;;;5015284;28;20530;-51
2022/07/06 10:08:09;;;;;;;0.80;0.80;;;20.50;99.90;;;;;;5015260;28;20179;-51
2022/07/06 10:10:36;;;;;;;0.82;0.82;;;20.60;99.90;;;;;;5015209;28;20181;-53
2022/07/06 10:13:03;;;;;;;1.17;0.90;;;20.60;99.90;;;;;;5015261;28;20703;-52
2022/07/06 10:15:33;;;;;;;1.17;0.88;;;20.70;99.90;;;;;;4997563;28;20176;-51
2022/07/06 10:18:03;;;;;;;0.80;0.80;;;20.70;99.90;;;;;;5015174;28;20230;-49
2022/07/06 10:20:38;;;;;;;1.05;0.90;;;20.90;99.90;;;;;;5015060;28;20223;-52
2022/07/06 10:23:07;;;;;;;1.48;1.08;;;20.80;99.90;;;;;;5015072;28;20684;-53
2022/07/06 10:25:34;;;;;;;1.00;0.90;;;20.70;99.90;;;;;;5014962;28;20171;-53
2022/07/06 10:28:00;;;;;;;1.90;1.10;;;20.80;99.10;;;;;;5014584;28;20173;-52
2022/07/06 10:30:27;;;;;;;1.95;0.80;;;20.80;99.90;;;;;;5014524;28;20181;-52
2022/07/06 10:32:56;;;;;;;0.90;0.90;;;20.80;99.90;;;;;;4997167;28;20191;-53
2022/07/06 10:35:21;;;;;;;2.42;1.00;;;21.00;99.90;;;;;;5014870;28;20164;-53
2022/07/06 10:38:04;;;;;;;2.30;1.20;;;21.20;99.90;;;;;;5014743;28;20177;-55
2022/07/06 10:43:32;;;;;;;2.45;1.50;;;21.40;99.90;;;;;;5014704;28;20303;-55
2022/07/06 10:45:58;;;;;;;1.67;1.25;;;21.40;99.70;;;;;;5014605;28;20176;-54
2022/07/06 10:48:24;;;;;;;1.98;1.30;;;21.40;99.90;;;;;;5014577;28;20185;-54
2022/07/06 10:50:54;;;;;;;1.83;1.17;;;21.40;99.90;;;;;;5014361;28;20275;-54
2022/07/06 10:53:30;;;;;;;2.13;1.55;;;21.30;99.90;;;;;;5014593;28;20661;-54
2022/07/06 10:55:57;;;;;;;1.95;1.10;;;21.30;99.90;;;;;;5014746;28;20172;-53
2022/07/06 10:58:47;;;;;;;1.05;0.82;;;21.30;99.90;;;;;;5014465;28;20181;-54
2022/07/06 11:01:13;;;;;;;1.75;1.17;;;21.70;99.90;;;;;;5006508;28;20208;-54
2022/07/06 11:03:44;;;;;;;2.38;1.30;;;21.70;99.90;;;;;;4997010;28;20204;-53
2022/07/06 11:06:13;;;;;;;1.10;1.00;;;21.50;99.90;;;;;;5014210;28;20677;-50
2022/07/06 11:08:48;;;;;;;2.00;1.20;;;21.80;99.70;;;;;;5014224;28;20180;-50
2022/07/06 11:11:23;;;;;;;1.73;1.50;;;21.80;99.90;;;;;;5014105;28;20180;-51
2022/07/06 11:13:52;;;;;;;2.28;1.10;;;21.80;99.90;;;;;;5014039;28;20175;-50
2022/07/06 11:16:19;;;;;;;2.10;0.88;;;21.80;99.90;;;;;;5013819;28;20177;-52
2022/07/06 11:18:59;;;;;;;1.00;0.90;;;22.00;99.90;;;;;;5014035;28;20204;-49
2022/07/06 11:21:46;;;;;;;1.83;1.10;;;22.40;99.90;;;;;;5014099;28;20169;-50
2022/07/06 11:24:20;;;;;;;1.40;1.00;;;22.60;99.90;;;;;;5013845;28;20645;-50
2022/07/06 11:26:48;;;;;;;2.20;1.45;;;22.60;99.10;;;;;;5014049;28;20176;-50
2022/07/06 11:29:17;;;;;;;2.78;1.17;;;22.40;99.90;;;;;;5014065;28;20181;-52
2022/07/06 11:31:44;;;;;;;1.55;1.30;;;22.10;99.40;;;;;;5013825;28;20176;-49
2022/07/06 11:34:16;;;;;;;2.40;1.25;;;21.90;99.70;;;;;;5013740;28;20181;-50
2022/07/06 11:36:41;;;;;;;2.28;1.80;;;21.90;99.90;;;;;;5013766;28;20291;-51
2022/07/06 11:39:07;;;;;;;1.98;1.33;;;21.90;99.00;;;;;;4996392;28;20188;-51
2022/07/06 11:41:34;;;;;;;1.30;1.20;;;22.20;99.90;;;;;;5013659;28;20255;-50
2022/07/06 11:44:00;;;;;;;2.55;1.80;;;22.20;99.90;;;;;;5013596;28;20248;-51
2022/07/06 11:46:28;;;;;;;1.70;1.60;;;21.90;99.90;;;;;;5013690;28;20259;-50
2022/07/06 11:48:59;;;;;;;2.42;1.88;;;21.80;99.90;;;;;;5013497;28;20525;-51
2022/07/06 11:51:26;;;;;;;2.42;2.10;;;21.60;99.90;;;;;;4996185;28;20630;-53
2022/07/06 11:53:57;;;;;;;3.78;1.83;;;22.10;99.90;;;;;;5013639;28;20645;-51
2022/07/06 11:56:27;;;;;;;1.70;1.60;;;22.40;99.90;;;;;;5013657;28;20271;-51
2022/07/06 11:58:57;;;;;;;2.55;1.75;;;22.70;99.90;;;;;;5013533;28;20188;-52
2022/07/06 12:01:25;;;;;;;2.00;1.48;;;22.80;99.90;;;;;;5013468;28;20189;-52
2022/07/06 12:03:51;;;;;;;2.05;1.48;;;22.70;99.30;;;;;;5013344;28;20286;-54
2022/07/06 12:06:22;;;;;;;2.92;1.50;;;23.10;99.90;;;;;;5013621;28;20187;-53
2022/07/06 12:08:51;;;;;;;4.00;1.70;;;23.30;99.80;;;;;;5013469;28;20187;-53
2022/07/06 12:11:21;;;;;;;1.42;1.20;;;23.70;99.70;;;;;;5013504;28;20176;-52
2022/07/06 12:13:49;;;;;;;2.20;1.40;;;23.90;99.20;;;;;;5013377;28;20177;-54
2022/07/06 12:16:16;;;;;;;2.95;2.22;;;24.00;99.10;;;;;;5013278;28;20677;-51
2022/07/06 12:18:43;;;;;;;1.92;1.38;;;24.10;97.10;;;;;;5013223;28;20526;-52
2022/07/06 12:21:12;;;;;;;3.35;1.70;;;23.50;98.20;;;;;;5013405;28;20173;-51
2022/07/06 12:23:58;;;;;;;1.63;1.42;;;22.80;98.40;;;;;;5013166;28;20212;-51
2022/07/06 12:26:28;;;;;;;1.75;1.40;;;22.90;99.50;;;;;;5013020;28;20263;-51
2022/07/06 12:29:09;;;;;;;1.70;1.60;;;23.50;99.50;;;;;;5012981;28;20638;-53
2022/07/06 12:31:36;;;;;;;1.50;1.40;;;23.90;98.30;;;;;;5013447;28;20212;-51
2022/07/06 12:34:03;;;;;;;2.08;1.02;;;23.50;97.20;;;;;;5013191;28;20648;-53
2022/07/06 12:36:29;;;;;;;1.10;0.93;;;23.20;98.70;;;;;;5013202;28;20177;-51
2022/07/06 12:38:55;;;;;;;1.15;1.00;;;23.30;99.80;;;;;;5013074;28;20261;-50
2022/07/06 12:41:32;;;;;;;1.55;1.10;;;23.60;99.30;;;;;;5013303;28;20212;-53
2022/07/06 12:44:04;;;;;;;1.42;1.08;;;23.60;97.60;;;;;;5013028;28;20696;-50
2022/07/06 12:46:34;;;;;;;2.13;1.00;;;23.40;98.10;;;;;;5013081;28;20173;-50
2022/07/06 12:49:02;;;;;;;0.65;0.65;;;23.30;99.40;;;;;;5013160;28;20173;-50
2022/07/06 12:51:29;;;;;;;1.05;0.80;;;23.30;98.50;;;;;;5013432;28;20184;-53
2022/07/06 12:54:14;;;;;;;3.00;0.90;;;23.20;99.70;;;;;;5016985;28;20541;-51